createdAt,value
2019-02-18T00:01:38.770Z,24.17
2019-02-18T00:04:08.826Z,25.07
2019-02-18T00:06:38.705Z,25.00
2019-02-18T00:09:09.156Z,29.87
2019-02-18T00:11:39.601Z,35.57
2019-02-18T00:14:09.827Z,42.60
2019-02-18T00:16:40.158Z,39.40
2019-02-18T00:19:10.605Z,35.07
2019-02-18T00:21:40.614Z,30.80
2019-02-18T00:24:10.646Z,27.90
2019-02-18T00:26:40.861Z,24.47
2019-02-18T00:29:11.839Z,22.70
2019-02-18T00:31:42.165Z,21.67
2019-02-18T00:34:12.868Z,21.63
2019-02-18T00:36:42.894Z,24.07
2019-02-18T00:39:12.995Z,22.83
2019-02-18T00:41:43.029Z,21.70
2019-02-18T00:44:12.991Z,22.60
2019-02-18T00:46:43.443Z,20.97
2019-02-18T00:49:13.670Z,20.23
2019-02-18T00:51:43.574Z,21.90
2019-02-18T00:54:13.808Z,20.13
2019-02-18T00:56:43.801Z,21.33
2019-02-18T00:59:13.842Z,21.43
2019-02-18T01:01:43.870Z,21.67
2019-02-18T01:04:14.387Z,20.00
2019-02-18T01:06:44.789Z,20.57
2019-02-18T01:09:14.900Z,20.77
2019-02-18T01:11:45.156Z,20.47
2019-02-18T01:14:16.006Z,21.73
2019-02-18T01:16:46.562Z,22.53
2019-02-18T01:19:16.663Z,22.30
2019-02-18T01:21:46.816Z,21.57
2019-02-18T01:24:16.811Z,23.60
2019-02-18T01:26:46.802Z,22.63
2019-02-18T01:29:17.349Z,19.60
2019-02-18T01:31:47.314Z,22.50
2019-02-18T01:34:17.207Z,22.20
2019-02-18T01:36:47.136Z,22.47
2019-02-18T01:39:18.083Z,22.20
2019-02-18T01:41:48.075Z,23.20
2019-02-18T01:44:18.092Z,22.90
2019-02-18T01:46:48.008Z,22.20
2019-02-18T01:49:18.031Z,22.40
2019-02-18T01:51:48.250Z,20.47
2019-02-18T01:54:18.224Z,21.23
2019-02-18T01:56:48.594Z,20.83
2019-02-18T01:59:18.947Z,19.20
2019-02-18T02:01:49.394Z,21.53
2019-02-18T02:04:19.387Z,27.97
2019-02-18T02:06:50.428Z,25.40
2019-02-18T02:09:20.729Z,25.50
2019-02-18T02:11:50.906Z,23.67
2019-02-18T02:14:20.947Z,23.93
2019-02-18T02:16:51.889Z,23.23
2019-02-18T02:19:21.880Z,25.03
2019-02-18T02:21:52.414Z,25.13
2019-02-18T02:24:22.545Z,24.90
2019-02-18T02:26:52.951Z,27.97
2019-02-18T02:29:23.296Z,27.60
2019-02-18T02:31:53.436Z,28.40
2019-02-18T02:34:23.578Z,28.30
2019-02-18T02:36:53.452Z,26.53
2019-02-18T02:39:23.783Z,26.23
2019-02-18T02:41:53.837Z,27.40
2019-02-18T02:44:24.236Z,24.83
2019-02-18T02:46:54.766Z,30.47
2019-02-18T02:49:25.462Z,30.20
2019-02-18T02:51:55.437Z,31.03
2019-02-18T02:54:25.298Z,28.00
2019-02-18T02:56:55.501Z,23.63
2019-02-18T02:59:25.541Z,24.57
2019-02-18T03:01:55.380Z,24.83
2019-02-18T03:04:25.763Z,22.97
2019-02-18T03:06:55.771Z,23.33
2019-02-18T03:09:25.970Z,22.97
2019-02-18T03:11:55.855Z,25.87
2019-02-18T03:14:26.202Z,27.13
2019-02-18T03:16:56.679Z,28.07
2019-02-18T03:19:26.903Z,27.60
2019-02-18T03:21:56.768Z,25.30
2019-02-18T03:24:26.764Z,23.27
2019-02-18T03:26:56.746Z,22.77
2019-02-18T03:30:11.003Z,22.40
2019-02-18T03:32:54.118Z,21.97
2019-02-18T03:35:24.749Z,22.93
2019-02-18T03:37:54.783Z,23.27
2019-02-18T03:40:24.760Z,22.23
2019-02-18T03:42:55.008Z,23.13
2019-02-18T03:45:25.192Z,24.63
2019-02-18T03:47:55.055Z,23.67
2019-02-18T03:50:25.106Z,22.97
2019-02-18T03:52:55.285Z,22.97
2019-02-18T03:55:25.882Z,24.43
2019-02-18T03:57:55.842Z,19.70
2019-02-18T04:00:26.273Z,20.23
2019-02-18T04:02:56.677Z,23.53
2019-02-18T04:05:27.102Z,22.73
2019-02-18T04:07:57.351Z,22.03
2019-02-18T04:10:27.243Z,25.03
2019-02-18T04:12:57.640Z,20.63
2019-02-18T04:15:28.083Z,26.13
2019-02-18T04:17:58.247Z,25.33
2019-02-18T04:20:28.722Z,28.10
2019-02-18T04:22:58.883Z,27.83
2019-02-18T04:25:28.840Z,26.63
2019-02-18T04:27:59.309Z,28.23
2019-02-18T04:30:29.797Z,30.60
2019-02-18T04:33:00.480Z,28.90
2019-02-18T04:35:30.421Z,28.13
2019-02-18T04:38:00.420Z,27.07
2019-02-18T04:40:30.720Z,25.30
2019-02-18T04:43:01.464Z,25.40
2019-02-18T04:45:31.475Z,25.03
2019-02-18T04:48:03.240Z,29.90
2019-02-18T04:50:33.331Z,27.17
2019-02-18T04:53:03.345Z,28.63
2019-02-18T04:55:33.351Z,34.07
2019-02-18T04:58:06.232Z,32.73
2019-02-18T05:00:37.483Z,32.60
2019-02-18T05:03:07.431Z,31.03
2019-02-18T05:05:37.831Z,27.40
2019-02-18T05:08:07.812Z,26.60
2019-02-18T05:10:38.610Z,26.60
2019-02-18T05:13:08.741Z,25.97
2019-02-18T05:15:40.299Z,26.57
2019-02-18T05:18:11.113Z,24.67
2019-02-18T05:20:41.129Z,27.00
2019-02-18T05:23:11.673Z,27.30
2019-02-18T05:25:41.959Z,23.37
2019-02-18T05:28:11.915Z,21.00
2019-02-18T05:30:42.410Z,25.13
2019-02-18T05:33:12.961Z,21.50
2019-02-18T05:35:43.278Z,23.27
2019-02-18T05:38:13.347Z,25.73
2019-02-18T05:40:43.453Z,24.70
2019-02-18T05:43:13.584Z,27.23
2019-02-18T05:45:43.571Z,24.53
2019-02-18T05:48:14.219Z,25.00
2019-02-18T05:50:44.892Z,23.57
2019-02-18T05:53:14.788Z,25.00
2019-02-18T05:55:44.631Z,25.73
2019-02-18T05:58:14.876Z,28.13
2019-02-18T06:00:44.880Z,29.83
2019-02-18T06:03:15.091Z,30.77
2019-02-18T06:05:45.085Z,31.17
2019-02-18T06:08:15.147Z,28.43
2019-02-18T06:10:45.893Z,27.87
2019-02-18T06:13:15.903Z,26.37
2019-02-18T06:15:46.356Z,25.40
2019-02-18T06:18:16.477Z,26.37
2019-02-18T06:20:46.970Z,28.40
2019-02-18T06:23:17.003Z,28.83
2019-02-18T06:25:47.262Z,29.77
2019-02-18T06:28:17.725Z,35.60
2019-02-18T06:30:48.037Z,56.03
2019-02-18T06:33:18.169Z,56.80
2019-02-18T06:35:48.368Z,45.83
2019-02-18T06:38:18.490Z,46.43
2019-02-18T06:40:48.700Z,43.23
2019-02-18T06:43:18.763Z,45.03
2019-02-18T06:46:07.891Z,37.00
2019-02-18T06:48:43.490Z,36.73
2019-02-18T06:51:13.524Z,38.07
2019-02-18T06:53:43.529Z,36.93
2019-02-18T06:56:13.855Z,41.00
2019-02-18T06:58:52.694Z,43.13
2019-02-18T07:01:57.071Z,40.27
2019-02-18T07:04:35.901Z,31.50
2019-02-18T07:07:34.513Z,29.17
2019-02-18T07:10:14.370Z,29.90
2019-02-18T07:12:50.503Z,24.83
2019-02-18T07:15:20.880Z,21.27
2019-02-18T07:17:51.523Z,23.27
2019-02-18T07:20:21.731Z,21.87
2019-02-18T07:22:51.740Z,21.60
2019-02-18T07:25:21.901Z,21.23
2019-02-18T07:27:52.399Z,20.93
2019-02-18T07:30:22.568Z,20.07
2019-02-18T07:32:53.244Z,18.43
2019-02-18T07:35:23.614Z,17.90
2019-02-18T07:37:53.791Z,18.43
2019-02-18T07:40:23.769Z,19.17
2019-02-18T07:42:54.230Z,21.60
2019-02-18T07:45:24.578Z,18.40
2019-02-18T07:47:54.604Z,16.93
2019-02-18T07:50:24.520Z,16.23
2019-02-18T07:52:54.624Z,16.63
2019-02-18T07:55:25.195Z,18.50
2019-02-18T07:57:55.283Z,18.77
2019-02-18T08:00:25.674Z,20.27
2019-02-18T08:02:55.793Z,19.37
2019-02-18T08:05:26.645Z,19.13
2019-02-18T08:07:56.690Z,17.30
2019-02-18T08:10:27.023Z,20.13
2019-02-18T08:12:57.608Z,17.97
2019-02-18T08:15:27.718Z,18.37
2019-02-18T08:17:57.899Z,18.47
2019-02-18T08:20:27.821Z,17.33
2019-02-18T08:22:58.461Z,18.27
2019-02-18T08:25:28.465Z,19.93
2019-02-18T08:27:58.629Z,19.00
2019-02-18T08:30:29.213Z,23.80
2019-02-18T08:32:59.138Z,19.93
2019-02-18T08:35:29.366Z,21.93
2019-02-18T08:37:59.618Z,23.73
2019-02-18T08:40:30.206Z,21.43
2019-02-18T08:43:00.384Z,19.03
2019-02-18T08:45:30.558Z,19.00
2019-02-18T08:48:00.560Z,16.93
2019-02-18T08:50:31.119Z,16.40
2019-02-18T08:53:01.103Z,15.58
2019-02-18T08:55:31.203Z,15.63
2019-02-18T08:58:01.675Z,16.73
2019-02-18T09:00:32.250Z,14.73
2019-02-18T09:03:02.790Z,14.87
2019-02-18T09:05:32.837Z,15.18
2019-02-18T09:08:03.166Z,15.00
2019-02-18T09:10:34.094Z,15.60
2019-02-18T09:13:04.438Z,15.03
2019-02-18T09:15:34.366Z,15.45
2019-02-18T09:18:04.315Z,14.95
2019-02-18T09:20:34.578Z,15.38
2019-02-18T09:23:21.779Z,15.63
2019-02-18T09:25:54.821Z,15.93
2019-02-18T09:28:25.122Z,15.63
2019-02-18T09:30:56.301Z,14.65
2019-02-18T09:33:26.449Z,15.72
2019-02-18T09:35:56.495Z,14.20
2019-02-18T09:38:26.858Z,13.68
2019-02-18T09:40:58.217Z,14.13
2019-02-18T09:43:29.280Z,14.47
2019-02-18T09:45:59.461Z,15.50
2019-02-18T09:48:29.671Z,14.55
2019-02-18T09:51:00.297Z,14.63
2019-02-18T09:53:31.052Z,15.48
2019-02-18T09:56:01.817Z,14.73
2019-02-18T09:58:31.924Z,15.48
2019-02-18T10:01:02.011Z,16.00
2019-02-18T10:03:32.416Z,14.03
2019-02-18T10:06:02.992Z,14.73
2019-02-18T10:08:33.073Z,16.05
2019-02-18T10:11:03.174Z,15.55
2019-02-18T10:13:33.224Z,15.28
2019-02-18T10:16:03.443Z,14.28
2019-02-18T10:18:33.309Z,14.43
2019-02-18T10:21:03.349Z,14.75
2019-02-18T10:23:33.555Z,14.58
2019-02-18T10:26:03.443Z,13.95
2019-02-18T10:28:33.467Z,16.12
2019-02-18T10:31:03.760Z,15.08
2019-02-18T10:33:33.803Z,13.95
2019-02-18T10:36:03.856Z,15.13
2019-02-18T10:38:33.782Z,15.08
2019-02-18T10:41:06.818Z,16.42
2019-02-18T10:43:35.405Z,16.32
2019-02-18T10:46:05.326Z,15.40
2019-02-18T10:48:35.969Z,17.10
2019-02-18T10:51:06.430Z,16.27
2019-02-18T10:53:36.501Z,15.28
2019-02-18T10:56:06.487Z,14.53
2019-02-18T10:58:36.450Z,15.23
2019-02-18T11:01:07.359Z,14.33
2019-02-18T11:03:37.406Z,14.90
2019-02-18T11:06:09.262Z,13.38
2019-02-18T11:08:39.775Z,15.03
2019-02-18T11:11:16.632Z,15.20
2019-02-18T11:13:41.510Z,13.60
2019-02-18T11:16:11.885Z,16.60
2019-02-18T11:18:42.188Z,13.85
2019-02-18T11:21:13.471Z,14.78
2019-02-18T11:23:43.578Z,14.87
2019-02-18T11:26:13.559Z,14.90
2019-02-18T11:28:44.142Z,15.78
2019-02-18T11:31:15.847Z,17.45
2019-02-18T11:33:46.307Z,18.05
2019-02-18T11:36:16.765Z,17.42
2019-02-18T11:38:46.831Z,16.42
2019-02-18T11:41:26.861Z,17.60
2019-02-18T11:43:48.965Z,17.73
2019-02-18T11:46:19.305Z,18.90
2019-02-18T11:48:49.410Z,18.70
2019-02-18T11:51:19.887Z,18.30
2019-02-18T11:53:50.300Z,17.37
2019-02-18T11:56:20.779Z,16.43
2019-02-18T11:58:51.533Z,17.80
2019-02-18T12:01:22.247Z,17.10
2019-02-18T12:03:52.941Z,16.93
2019-02-18T12:06:22.941Z,14.93
2019-02-18T12:08:52.995Z,15.83
2019-02-18T12:11:23.111Z,16.93
2019-02-18T12:13:53.495Z,14.00
2019-02-18T12:16:23.968Z,14.87
2019-02-18T12:18:54.087Z,15.60
2019-02-18T12:21:24.139Z,15.80
2019-02-18T12:23:54.288Z,18.10
2019-02-18T12:26:25.145Z,16.30
2019-02-18T12:28:55.660Z,15.90
2019-02-18T12:31:25.698Z,14.50
2019-02-18T12:33:56.325Z,16.90
2019-02-18T12:36:26.545Z,15.77
2019-02-18T12:38:56.715Z,16.33
2019-02-18T12:41:27.215Z,16.70
2019-02-18T12:43:58.566Z,15.43
2019-02-18T12:46:28.652Z,16.10
2019-02-18T12:48:58.899Z,17.10
2019-02-18T12:51:29.440Z,15.20
2019-02-18T12:54:04.955Z,17.03
2019-02-18T12:56:35.038Z,17.73
2019-02-18T12:59:05.723Z,17.13
2019-02-18T13:01:36.810Z,16.07
2019-02-18T13:04:08.804Z,18.10
2019-02-18T13:06:40.696Z,19.13
2019-02-18T13:09:12.427Z,18.57
2019-02-18T13:11:44.237Z,16.40
2019-02-18T13:14:16.137Z,18.03
2019-02-18T13:16:48.134Z,18.27
2019-02-18T13:19:19.957Z,17.10
2019-02-18T13:21:51.743Z,17.17
2019-02-18T13:24:24.262Z,16.80
2019-02-18T13:26:54.580Z,17.97
2019-02-18T13:29:25.717Z,16.70
2019-02-18T13:31:56.252Z,17.53
2019-02-18T13:34:26.276Z,16.47
2019-02-18T13:36:58.022Z,14.73
2019-02-18T13:39:28.577Z,16.30
2019-02-18T13:42:07.096Z,16.40
2019-02-18T13:44:31.241Z,15.03
2019-02-18T13:47:00.732Z,15.53
2019-02-18T13:49:31.032Z,15.70
2019-02-18T13:52:02.995Z,14.00
2019-02-18T13:54:33.690Z,14.37
2019-02-18T13:57:09.829Z,14.70
2019-02-18T13:59:36.268Z,14.03
2019-02-18T14:02:07.284Z,12.87
2019-02-18T14:04:37.647Z,11.53
2019-02-18T14:07:07.681Z,12.23
2019-02-18T14:09:38.341Z,9.73
2019-02-18T14:12:15.963Z,9.60
2019-02-18T14:14:40.568Z,9.87
2019-02-18T14:17:10.923Z,10.40
2019-02-18T14:19:41.200Z,11.07
2019-02-18T14:22:11.506Z,10.17
2019-02-18T14:24:41.520Z,11.00
2019-02-18T14:27:11.519Z,10.90
2019-02-18T14:29:41.981Z,11.37
2019-02-18T14:32:12.433Z,10.50
2019-02-18T14:34:42.558Z,11.00
2019-02-18T14:37:12.670Z,11.60
2019-02-18T14:39:42.734Z,10.23
2019-02-18T14:42:13.353Z,10.73
2019-02-18T14:44:43.863Z,10.50
2019-02-18T14:47:14.581Z,11.00
2019-02-18T14:49:44.934Z,11.10
2019-02-18T14:52:15.248Z,11.60
2019-02-18T14:54:45.436Z,11.67
2019-02-18T14:57:15.742Z,12.20
2019-02-18T14:59:46.011Z,12.20
2019-02-18T15:02:16.359Z,11.70
2019-02-18T15:04:46.757Z,12.17
2019-02-18T15:07:17.052Z,13.20
2019-02-18T15:09:48.882Z,12.50
2019-02-18T15:12:20.013Z,12.50
2019-02-18T15:14:50.308Z,11.80
2019-02-18T15:17:20.620Z,11.83
2019-02-18T15:19:50.629Z,12.43
2019-02-18T15:22:20.732Z,12.47
2019-02-18T15:24:50.879Z,11.97
2019-02-18T15:27:21.642Z,12.33
2019-02-18T15:29:52.057Z,13.33
2019-02-18T15:32:22.588Z,13.40
2019-02-18T15:34:52.725Z,11.87
2019-02-18T15:37:23.411Z,12.27
2019-02-18T15:39:54.360Z,13.17
2019-02-18T15:42:24.577Z,11.43
2019-02-18T15:44:54.778Z,12.13
2019-02-18T15:47:25.298Z,12.03
2019-02-18T15:49:55.625Z,12.03
2019-02-18T15:52:25.952Z,11.27
2019-02-18T15:54:56.961Z,10.63
2019-02-18T15:57:27.456Z,11.33
2019-02-18T15:59:57.557Z,10.67
2019-02-18T16:02:27.688Z,14.73
2019-02-18T16:04:57.965Z,11.77
2019-02-18T16:07:28.607Z,10.93
2019-02-18T16:09:58.801Z,11.70
2019-02-18T16:12:29.105Z,10.80
2019-02-18T16:14:59.159Z,11.33
2019-02-18T16:17:29.601Z,9.50
2019-02-18T16:19:59.579Z,10.20
2019-02-18T16:22:29.706Z,10.40
2019-02-18T16:24:59.896Z,9.57
2019-02-18T16:27:30.142Z,9.40
2019-02-18T16:30:00.389Z,9.50
2019-02-18T16:32:30.837Z,8.63
2019-02-18T16:35:01.301Z,8.83
2019-02-18T16:37:31.720Z,10.40
2019-02-18T16:40:01.848Z,9.87
2019-02-18T16:42:32.950Z,9.37
2019-02-18T16:45:03.542Z,9.00
2019-02-18T16:47:34.104Z,9.27
2019-02-18T16:50:04.415Z,9.77
2019-02-18T16:52:34.854Z,9.03
2019-02-18T16:55:05.310Z,9.33
2019-02-18T16:57:35.512Z,9.17
2019-02-18T17:00:11.003Z,9.20
2019-02-18T17:02:41.110Z,11.03
2019-02-18T17:05:11.356Z,10.80
2019-02-18T17:07:43.099Z,9.40
2019-02-18T17:10:13.788Z,9.30
2019-02-18T17:12:43.985Z,9.87
2019-02-18T17:15:14.366Z,9.03
2019-02-18T17:17:44.459Z,9.17
2019-02-18T17:20:15.083Z,10.03
2019-02-18T17:22:45.693Z,11.57
2019-02-18T17:25:15.967Z,10.73
2019-02-18T17:27:47.149Z,11.40
2019-02-18T17:30:17.391Z,12.93
2019-02-18T17:32:47.960Z,14.30
2019-02-18T17:35:18.702Z,12.83
2019-02-18T17:37:48.739Z,12.20
2019-02-18T17:40:18.822Z,12.40
2019-02-18T17:42:50.005Z,12.17
2019-02-18T17:45:20.420Z,13.20
2019-02-18T17:47:51.022Z,13.10
2019-02-18T17:50:21.246Z,16.03
2019-02-18T17:52:51.873Z,16.63
2019-02-18T17:55:22.341Z,14.57
2019-02-18T17:57:52.292Z,14.53
2019-02-18T18:00:25.165Z,11.90
2019-02-18T18:02:55.468Z,10.17
2019-02-18T18:05:26.172Z,10.27
2019-02-18T18:07:56.438Z,13.40
2019-02-18T18:10:26.847Z,14.90
2019-02-18T18:12:57.290Z,14.50
2019-02-18T18:15:27.392Z,12.90
2019-02-18T18:17:57.478Z,14.13
2019-02-18T18:20:27.394Z,15.43
2019-02-18T18:22:57.848Z,16.73
2019-02-18T18:25:28.248Z,14.67
2019-02-18T18:27:58.827Z,14.20
2019-02-18T18:30:29.248Z,15.77
2019-02-18T18:32:59.329Z,15.73
2019-02-18T18:35:29.337Z,15.83
2019-02-18T18:37:59.263Z,16.17
2019-02-18T18:40:29.443Z,14.90
2019-02-18T18:42:59.796Z,14.83
2019-02-18T18:45:29.918Z,12.47
2019-02-18T18:47:59.965Z,12.37
2019-02-18T18:50:30.565Z,11.20
2019-02-18T18:53:00.742Z,11.80
2019-02-18T18:55:31.121Z,12.47
2019-02-18T18:58:01.298Z,10.23
2019-02-18T19:00:31.593Z,9.43
2019-02-18T19:03:03.667Z,11.33
2019-02-18T19:05:34.528Z,9.83
2019-02-18T19:08:05.132Z,10.73
2019-02-18T19:10:35.453Z,10.30
2019-02-18T19:13:05.576Z,10.57
2019-02-18T19:15:35.585Z,12.40
2019-02-18T19:18:06.903Z,12.20
2019-02-18T19:20:37.158Z,11.90
2019-02-18T19:23:07.357Z,12.00
2019-02-18T19:25:37.521Z,12.43
2019-02-18T19:28:07.935Z,13.37
2019-02-18T19:30:38.130Z,13.83
2019-02-18T19:33:08.365Z,11.87
2019-02-18T19:35:38.572Z,12.33
2019-02-18T19:38:08.527Z,10.20
2019-02-18T19:40:38.451Z,10.63
2019-02-18T19:43:09.271Z,10.23
2019-02-18T19:45:39.353Z,9.77
2019-02-18T19:48:09.527Z,10.10
2019-02-18T19:50:39.845Z,11.17
2019-02-18T19:53:10.047Z,12.37
2019-02-18T19:55:40.383Z,16.03
2019-02-18T19:58:10.637Z,13.17
2019-02-18T20:00:41.032Z,11.93
2019-02-18T20:03:11.340Z,10.60
2019-02-18T20:05:41.255Z,11.33
2019-02-18T20:08:11.587Z,12.13
2019-02-18T20:10:41.658Z,16.30
2019-02-18T20:13:11.756Z,15.13
2019-02-18T20:15:41.926Z,16.60
2019-02-18T20:18:13.794Z,18.03
2019-02-18T20:20:44.124Z,25.23
2019-02-18T20:23:14.978Z,22.23
2019-02-18T20:25:45.186Z,20.10
2019-02-18T20:28:15.388Z,18.10
2019-02-18T20:30:45.563Z,16.63
2019-02-18T20:33:16.248Z,16.30
2019-02-18T20:35:48.607Z,15.80
2019-02-18T20:38:18.815Z,17.97
2019-02-18T20:40:49.065Z,22.00
2019-02-18T20:43:19.541Z,22.87
2019-02-18T20:45:49.786Z,18.07
2019-02-18T20:48:20.508Z,21.67
2019-02-18T20:50:50.961Z,19.03
2019-02-18T20:53:21.379Z,16.87
2019-02-18T20:55:52.225Z,16.67
2019-02-18T20:58:22.646Z,16.90
2019-02-18T21:00:53.028Z,22.90
2019-02-18T21:03:23.605Z,27.67
2019-02-18T21:05:54.137Z,26.50
2019-02-18T21:08:24.161Z,25.67
2019-02-18T21:10:54.331Z,25.57
2019-02-18T21:13:24.720Z,24.87
2019-02-18T21:15:55.488Z,25.13
2019-02-18T21:18:25.701Z,27.20
2019-02-18T21:20:55.914Z,26.33
2019-02-18T21:23:25.970Z,26.33
2019-02-18T21:25:56.157Z,25.00
2019-02-18T21:28:26.613Z,24.10
2019-02-18T21:30:56.942Z,24.57
2019-02-18T21:33:27.288Z,22.73
2019-02-18T21:35:57.484Z,21.13
2019-02-18T21:38:27.575Z,20.90
2019-02-18T21:40:57.620Z,23.00
2019-02-18T21:43:28.523Z,29.70
2019-02-18T21:45:59.119Z,29.63
2019-02-18T21:48:29.633Z,29.10
2019-02-18T21:50:59.854Z,25.63
2019-02-18T21:53:29.956Z,24.13
2019-02-18T21:56:00.102Z,20.80
2019-02-18T21:58:30.128Z,21.03
2019-02-18T22:01:00.446Z,20.17
2019-02-18T22:03:30.773Z,21.33
2019-02-18T22:06:00.786Z,21.47
2019-02-18T22:08:30.981Z,21.90
2019-02-18T22:11:01.443Z,21.07
2019-02-18T22:13:31.579Z,20.27
2019-02-18T22:16:01.564Z,19.20
2019-02-18T22:18:31.727Z,19.17
2019-02-18T22:21:01.975Z,21.87
2019-02-18T22:23:31.952Z,26.77
2019-02-18T22:26:02.425Z,26.87
2019-02-18T22:28:33.004Z,25.40
2019-02-18T22:31:03.322Z,21.50
2019-02-18T22:33:33.365Z,21.23
2019-02-18T22:36:03.583Z,23.20
2019-02-18T22:38:33.733Z,22.77
2019-02-18T22:41:04.355Z,21.80
2019-02-18T22:43:34.440Z,21.17
2019-02-18T22:46:05.238Z,19.37
2019-02-18T22:48:35.577Z,20.23
2019-02-18T22:51:05.728Z,22.13
2019-02-18T22:53:36.347Z,22.50
2019-02-18T22:56:06.547Z,19.87
2019-02-18T22:58:36.993Z,20.53
2019-02-18T23:01:08.775Z,19.73
2019-02-18T23:03:38.955Z,23.87
2019-02-18T23:06:09.207Z,24.53
2019-02-18T23:08:39.379Z,27.47
2019-02-18T23:11:10.005Z,26.03
2019-02-18T23:13:41.951Z,24.03
2019-02-18T23:16:12.167Z,21.13
2019-02-18T23:18:42.459Z,27.37
2019-02-18T23:21:12.565Z,31.20
2019-02-18T23:23:42.848Z,29.87
2019-02-18T23:26:13.234Z,27.07
2019-02-18T23:28:43.841Z,28.93
2019-02-18T23:31:14.009Z,23.90
2019-02-18T23:33:44.065Z,20.63
2019-02-18T23:36:14.236Z,19.27
2019-02-18T23:38:44.592Z,19.37
2019-02-18T23:41:14.991Z,19.40
2019-02-18T23:43:45.130Z,21.40
2019-02-18T23:46:15.131Z,20.47
2019-02-18T23:48:45.593Z,19.63
2019-02-18T23:51:16.087Z,20.23
2019-02-18T23:53:46.200Z,20.97
2019-02-18T23:56:16.238Z,20.20
2019-02-18T23:58:46.318Z,24.27
